Time;durP1;ratioP1;P1;durP2;ratioP2;P2;SDS_P1;SDS_P2;PMS_P1;PMS_P2;Temp;Humidity;BMP_temperature;BMP_pressure;BME280_temperature;BME280_humidity;BME280_pressure;Samples;Min_cycle;Max_cycle;Signal;HPM_P1;HPM_P2
2022/09/22 00:01:40;;;;;;;6.00;3.60;;;;;;;9.92;97.57;101112.71;107610;1247;71776;-75
2022/09/22 00:04:13;;;;;;;5.10;3.40;;;;;;;9.96;97.47;101111.05;107562;1245;62251;-74
2022/09/22 00:06:50;;;;;;;7.40;3.70;;;;;;;9.96;97.42;101108.58;107604;1246;61491;-70
2022/09/22 00:09:20;;;;;;;5.70;4.00;;;;;;;9.96;97.39;101108.77;107580;1246;71433;-72
2022/09/22 00:11:52;;;;;;;7.20;3.70;;;;;;;9.98;97.50;101110.04;107600;1246;70346;-70
2022/09/22 00:14:26;;;;;;;5.60;4.10;;;;;;;9.99;97.22;101107.88;107390;1247;67955;-70
2022/09/22 00:17:00;;;;;;;7.20;4.70;;;;;;;9.98;97.82;101104.26;107639;1247;71176;-70
2022/09/22 00:19:37;;;;;;;6.00;4.10;;;;;;;10.00;97.45;101105.02;107503;1247;60832;-70
2022/09/22 00:22:05;;;;;;;7.40;4.10;;;;;;;10.02;97.22;101104.20;107346;1247;60241;-69
2022/09/22 00:24:34;;;;;;;7.80;4.30;;;;;;;10.01;97.59;101102.89;107491;1247;71310;-68
2022/09/22 00:27:03;;;;;;;8.30;5.40;;;;;;;10.04;97.14;101100.94;107691;1246;72438;-69
2022/09/22 00:29:31;;;;;;;8.50;5.10;;;;;;;10.02;97.03;101095.50;107658;1246;71329;-68
2022/09/22 00:32:01;;;;;;;7.10;4.10;;;;;;;10.04;96.81;101092.61;107596;1247;73096;-67
2022/09/22 00:34:34;;;;;;;9.50;5.30;;;;;;;10.05;96.98;101093.91;107370;1247;62130;-68
2022/09/22 00:37:03;;;;;;;6.80;4.60;;;;;;;10.01;96.88;101095.88;107560;1246;61725;-68
2022/09/22 00:39:32;;;;;;;8.00;5.80;;;;;;;10.00;97.44;101094.39;107537;1245;72661;-69
2022/09/22 00:42:01;;;;;;;8.50;5.50;;;;;;;9.94;97.36;101097.95;107725;1247;71807;-68
2022/09/22 00:44:38;;;;;;;7.20;4.60;;;;;;;9.86;99.32;101094.24;107770;1245;71150;-68
2022/09/22 00:47:37;;;;;;;9.30;5.50;;;;;;;9.88;99.26;101094.88;107409;1247;73532;-71
2022/09/22 00:50:17;;;;;;;8.50;5.40;;;;;;;9.89;98.17;101090.06;107758;1246;61844;-73
2022/09/22 00:53:02;;;;;;;8.20;5.50;;;;;;;9.89;98.63;101090.81;107749;1247;60324;-69
2022/09/22 00:55:39;;;;;;;8.60;5.50;;;;;;;9.90;98.16;101087.03;107822;1244;74533;-69
2022/09/22 00:58:14;;;;;;;8.10;5.50;;;;;;;9.88;99.40;101087.16;107693;1245;72999;-69
2022/09/22 01:00:43;;;;;;;7.90;5.10;;;;;;;9.89;99.86;101088.52;107730;1244;69614;-69
2022/09/22 01:03:19;;;;;;;7.80;5.60;;;;;;;9.91;100.00;101090.27;107566;1244;73611;-69
2022/09/22 01:05:56;;;;;;;7.30;4.80;;;;;;;9.95;100.00;101084.99;109998;1244;59335;-70
2022/09/22 01:08:25;;;;;;;6.90;5.40;;;;;;;9.98;100.00;101086.55;108075;1243;61595;-69
2022/09/22 01:10:56;;;;;;;7.70;4.30;;;;;;;10.02;99.75;101082.98;107643;1247;71549;-68
2022/09/22 01:13:53;;;;;;;6.90;4.60;;;;;;;10.04;99.81;101085.77;108513;1243;71413;-69
2022/09/22 01:17:19;;;;;;;6.10;4.10;;;;;;;10.07;99.41;101087.48;107816;1245;70372;-71
2022/09/22 01:20:49;;;;;;;6.80;4.20;;;;;;;10.11;98.39;101088.14;107765;1244;72045;-69
2022/09/22 01:23:41;;;;;;;7.70;4.10;;;;;;;10.13;97.94;101091.85;107812;1244;60554;-70
2022/09/22 01:26:24;;;;;;;4.90;3.40;;;;;;;10.13;97.83;101087.11;107823;1244;58792;-71
2022/09/22 01:29:06;;;;;;;6.70;4.20;;;;;;;10.15;97.68;101091.02;107812;1244;71672;-69
2022/09/22 01:31:54;;;;;;;5.90;4.40;;;;;;;10.16;97.37;101091.16;107777;1244;71607;-68
2022/09/22 01:34:41;;;;;;;6.40;4.30;;;;;;;10.15;97.63;101086.52;107661;1244;69301;-69
2022/09/22 01:37:36;;;;;;;9.00;4.80;;;;;;;10.17;97.43;101088.64;107803;1244;73380;-68
2022/09/22 01:40:26;;;;;;;6.10;4.60;;;;;;;10.19;97.52;101088.80;107820;1244;61314;-67
2022/09/22 01:43:19;;;;;;;7.90;5.20;;;;;;;10.15;97.52;101085.49;107822;1244;58925;-69
2022/09/22 01:45:48;;;;;;;7.90;5.10;;;;;;;10.15;97.20;101084.20;107813;1244;73185;-68
2022/09/22 01:48:28;;;;;;;7.20;4.70;;;;;;;10.15;97.59;101086.14;107616;1244;69574;-68
2022/09/22 01:51:10;;;;;;;6.30;4.20;;;;;;;10.17;97.57;101086.00;107855;1244;68876;-68
2022/09/22 01:53:46;;;;;;;6.30;4.80;;;;;;;10.19;97.20;101086.54;107855;1244;74408;-66
2022/09/22 01:56:18;;;;;;;8.40;4.90;;;;;;;10.15;98.11;101085.95;107905;1243;62800;-67
2022/09/22 01:58:58;;;;;;;6.20;4.40;;;;;;;10.17;98.49;101084.66;107735;1246;59518;-67
2022/09/22 02:01:40;;;;;;;7.50;4.90;;;;;;;10.18;97.70;101088.02;107996;1244;71887;-70
2022/09/22 02:04:18;;;;;;;6.00;3.90;;;;;;;10.15;97.43;101088.08;107732;1244;71774;-70
2022/09/22 02:07:24;;;;;;;7.60;5.20;;;;;;;10.15;96.99;101088.92;107732;1244;68887;-67
2022/09/22 02:09:54;;;;;;;7.00;4.40;;;;;;;10.12;97.51;101087.73;107841;1246;74298;-70
2022/09/22 02:12:23;;;;;;;6.70;4.60;;;;;;;10.12;97.55;101084.95;107847;1246;62821;-69
2022/09/22 02:14:52;;;;;;;7.50;4.00;;;;;;;10.15;97.79;101083.70;107942;1245;59804;-69
2022/09/22 02:17:21;;;;;;;5.90;3.70;;;;;;;10.16;97.08;101089.17;107800;1246;72782;-68
2022/09/22 02:19:51;;;;;;;7.30;4.30;;;;;;;10.16;96.90;101085.55;107768;1247;72599;-68
2022/09/22 02:22:20;;;;;;;6.10;3.60;;;;;;;10.16;96.58;101089.39;107756;1246;71982;-69
2022/09/22 02:24:48;;;;;;;5.90;4.10;;;;;;;10.18;96.49;101090.68;107608;1245;74540;-69
2022/09/22 02:27:34;;;;;;;7.20;4.00;;;;;;;10.17;96.44;101090.75;107537;1247;61778;-71
2022/09/22 02:30:12;;;;;;;5.70;3.30;;;;;;;10.18;96.10;101090.83;107579;1247;58865;-70
2022/09/22 02:32:46;;;;;;;6.10;4.20;;;;;;;10.17;96.27;101091.27;107598;1247;71673;-70
2022/09/22 02:35:16;;;;;;;6.00;3.70;;;;;;;10.16;96.39;101087.63;107816;1246;70322;-70
2022/09/22 02:38:20;;;;;;;6.40;4.20;;;;;;;10.18;95.87;101085.95;107564;1247;67908;-69
2022/09/22 02:41:16;;;;;;;6.80;4.00;;;;;;;10.17;96.11;101088.11;107758;1246;71399;-69
2022/09/22 02:43:54;;;;;;;5.40;4.30;;;;;;;10.18;96.09;101088.71;107447;1247;60546;-69
2022/09/22 02:46:35;;;;;;;5.70;4.10;;;;;;;10.21;95.87;101088.02;107406;1247;60497;-67
2022/09/22 02:49:10;;;;;;;7.10;4.90;;;;;;;10.17;96.02;101091.79;107590;1247;74461;-71
2022/09/22 02:51:40;;;;;;;6.80;4.00;;;;;;;10.12;96.22;101087.20;107475;1247;70923;-71
2022/09/22 02:54:09;;;;;;;6.80;3.60;;;;;;;10.12;96.29;101087.19;107446;1247;68678;-70
2022/09/22 02:56:38;;;;;;;7.20;4.30;;;;;;;10.14;96.09;101090.23;107488;1247;71466;-71
2022/09/22 02:59:10;;;;;;;8.00;4.60;;;;;;;10.15;96.51;101092.55;107523;1246;62146;-70
2022/09/22 03:01:39;;;;;;;;;;;;;;;10.18;96.52;101096.59;107611;1246;61669;-71
2022/09/22 03:04:08;;;;;;;8.40;5.00;;;;;;;10.23;96.07;101096.27;107520;1246;71778;-72
2022/09/22 03:06:37;;;;;;;7.40;5.00;;;;;;;10.19;96.30;101101.71;107439;1247;70339;-72
2022/09/22 03:09:06;;;;;;;8.40;4.90;;;;;;;10.19;96.17;101098.72;107526;1246;70277;-72
2022/09/22 03:11:35;;;;;;;9.10;5.20;;;;;;;10.20;96.67;101101.14;107579;1246;74736;-71
2022/09/22 03:14:03;;;;;;;8.80;4.70;;;;;;;10.20;96.94;101101.81;107491;1246;62419;-72
2022/09/22 03:16:33;;;;;;;8.60;4.70;;;;;;;10.22;96.41;101104.11;107566;1247;59579;-71
2022/09/22 03:19:02;;;;;;;6.40;4.50;;;;;;;10.19;96.37;101096.54;107719;1246;72863;-71
2022/09/22 03:21:31;;;;;;;7.50;5.20;;;;;;;10.15;96.59;101101.84;107741;1245;71784;-73
2022/09/22 03:24:00;;;;;;;7.20;5.10;;;;;;;10.13;96.29;101105.93;107696;1246;70130;-71
2022/09/22 03:26:28;;;;;;;7.90;4.60;;;;;;;10.15;96.38;101106.65;107723;1245;73581;-71
2022/09/22 03:28:57;;;;;;;7.80;4.60;;;;;;;10.12;96.60;101109.98;107710;1246;60471;-72
2022/09/22 03:31:26;;;;;;;9.10;5.20;;;;;;;10.10;96.60;101113.96;107530;1247;58890;-72
2022/09/22 03:33:55;;;;;;;7.30;4.80;;;;;;;10.10;96.68;101115.66;107628;1246;73462;-70
2022/09/22 03:36:23;;;;;;;8.10;5.30;;;;;;;10.06;97.03;101112.80;107552;1247;70190;-72
2022/09/22 03:38:52;;;;;;;8.40;4.70;;;;;;;10.07;96.88;101116.77;107630;1247;68721;-73
2022/09/22 03:41:20;;;;;;;9.80;4.90;;;;;;;10.06;96.71;101118.17;107548;1247;73932;-71
2022/09/22 03:43:49;;;;;;;8.40;4.70;;;;;;;10.07;96.59;101113.11;107493;1247;61812;-69
2022/09/22 03:46:18;;;;;;;9.20;5.10;;;;;;;10.06;96.86;101116.30;107531;1247;59003;-70
2022/09/22 03:48:47;;;;;;;6.90;4.60;;;;;;;10.04;97.05;101111.88;107536;1247;71147;-70
2022/09/22 03:51:16;;;;;;;8.90;5.60;;;;;;;10.07;97.06;101115.02;107452;1246;72630;-71
2022/09/22 03:53:45;;;;;;;6.90;4.80;;;;;;;10.03;97.51;101115.77;107605;1245;70221;-68
2022/09/22 03:56:15;;;;;;;7.60;5.50;;;;;;;10.01;98.42;101114.00;107673;1246;74240;-69
2022/09/22 03:58:44;;;;;;;9.70;5.30;;;;;;;10.03;97.44;101111.62;107499;1245;63965;-71
2022/09/22 04:01:12;;;;;;;7.80;5.40;;;;;;;10.03;97.69;101110.40;107667;1247;61619;-70
2022/09/22 04:03:41;;;;;;;8.20;5.40;;;;;;;10.04;97.34;101111.38;107634;1245;72215;-71
2022/09/22 04:06:10;;;;;;;9.50;5.20;;;;;;;10.02;97.76;101118.10;107689;1244;69813;-71
2022/09/22 04:08:39;;;;;;;6.30;4.70;;;;;;;10.04;97.47;101117.12;107701;1244;68676;-66
2022/09/22 04:11:08;;;;;;;7.90;5.60;;;;;;;10.08;97.26;101117.91;107687;1244;72759;-68
2022/09/22 04:13:37;;;;;;;6.90;5.10;;;;;;;10.08;96.90;101121.73;107540;1244;61054;-68
2022/09/22 04:16:11;;;;;;;7.00;5.00;;;;;;;10.09;97.21;101119.91;107693;1244;59281;-67
2022/09/22 04:18:40;;;;;;;8.60;5.40;;;;;;;10.07;97.53;101122.17;107798;1244;72120;-67
2022/09/22 04:21:09;;;;;;;7.50;5.50;;;;;;;10.07;97.59;101121.06;107947;1243;72619;-83
2022/09/22 04:23:37;;;;;;;7.40;5.00;;;;;;;10.11;97.15;101119.83;108503;1244;70736;-87
2022/09/22 04:26:06;;;;;;;7.70;5.40;;;;;;;10.15;97.22;101122.38;107804;1244;74253;-82
2022/09/22 04:28:35;;;;;;;7.70;5.00;;;;;;;10.14;97.97;101120.30;107740;1247;61099;-84
2022/09/22 04:31:04;;;;;;;6.80;5.00;;;;;;;10.12;97.91;101117.46;107682;1247;60270;-85
2022/09/22 04:33:33;;;;;;;6.90;5.20;;;;;;;10.16;97.91;101114.96;107922;1246;72694;-87
2022/09/22 04:36:02;;;;;;;7.60;5.60;;;;;;;10.24;97.62;101118.13;107757;1247;70208;-85
2022/09/22 04:38:31;;;;;;;8.00;5.80;;;;;;;10.26;97.40;101123.38;107834;1246;69546;-86
2022/09/22 04:41:00;;;;;;;7.80;5.00;;;;;;;10.32;97.47;101126.52;107895;1244;75125;-83
2022/09/22 04:43:29;;;;;;;8.00;5.50;;;;;;;10.33;97.43;101127.14;108027;1244;62628;-86
2022/09/22 04:45:57;;;;;;;6.80;4.90;;;;;;;10.36;97.39;101125.19;108060;1244;60830;-89
2022/09/22 04:48:26;;;;;;;8.70;5.60;;;;;;;10.41;96.98;101120.54;108225;1244;74494;-85
2022/09/22 04:50:55;;;;;;;7.90;5.00;;;;;;;10.42;97.18;101120.46;107774;1244;70103;-88
2022/09/22 04:53:24;;;;;;;7.30;5.60;;;;;;;10.48;96.74;101115.33;107961;1244;69339;-86
2022/09/22 04:55:52;;;;;;;7.40;5.30;;;;;;;10.53;96.59;101118.19;107801;1244;73695;-85
2022/09/22 04:58:21;;;;;;;6.60;5.50;;;;;;;10.54;96.30;101119.82;108029;1244;61935;-86
2022/09/22 05:00:50;;;;;;;7.50;4.90;;;;;;;10.56;96.56;101122.98;107732;1247;60215;-86
2022/09/22 05:03:19;;;;;;;7.30;5.10;;;;;;;10.60;96.28;101124.49;108136;1244;71889;-85
2022/09/22 05:05:49;;;;;;;6.70;4.70;;;;;;;10.64;95.89;101122.66;108074;1244;71831;-84
2022/09/22 05:08:18;;;;;;;8.30;5.30;;;;;;;10.66;95.58;101122.34;108057;1244;70170;-85
2022/09/22 05:10:47;;;;;;;8.30;5.90;;;;;;;10.64;95.87;101124.92;108202;1244;71447;-84
2022/09/22 05:13:15;;;;;;;7.90;5.40;;;;;;;10.66;96.16;101127.39;108004;1244;62083;-85
2022/09/22 05:15:44;;;;;;;9.10;5.20;;;;;;;10.70;95.82;101129.08;107798;1244;59152;-86
2022/09/22 05:18:13;;;;;;;7.20;5.20;;;;;;;10.75;95.64;101128.54;108214;1244;73640;-85
2022/09/22 05:20:43;;;;;;;7.50;5.30;;;;;;;10.75;95.60;101124.69;108117;1244;71108;-85
2022/09/22 05:23:12;;;;;;;6.50;4.70;;;;;;;10.81;95.49;101126.73;108000;1244;69665;-84
2022/09/22 05:25:43;;;;;;;8.20;5.60;;;;;;;10.96;94.93;101127.52;107977;1247;72585;-84
2022/09/22 05:28:12;;;;;;;6.90;4.70;;;;;;;11.07;94.86;101125.33;107915;1244;62180;-89
2022/09/22 05:30:41;;;;;;;6.80;4.90;;;;;;;11.18;94.66;101124.77;108262;1244;59136;-86
2022/09/22 05:33:10;;;;;;;7.60;5.00;;;;;;;11.31;94.07;101123.00;108260;1244;73265;-79
2022/09/22 05:35:38;;;;;;;7.70;5.00;;;;;;;11.40;93.55;101120.98;107930;1244;72786;-86
2022/09/22 05:38:07;;;;;;;7.30;4.60;;;;;;;11.48;92.77;101125.16;107903;1244;69417;-85
2022/09/22 05:40:36;;;;;;;7.70;4.60;;;;;;;11.61;92.53;101127.23;108030;1244;73956;-85
2022/09/22 05:43:04;;;;;;;7.50;4.40;;;;;;;11.66;91.72;101125.25;108132;1244;63476;-88
2022/09/22 05:45:33;;;;;;;5.50;4.20;;;;;;;11.68;90.99;101125.16;108125;1244;59426;-87
2022/09/22 05:48:02;;;;;;;6.30;4.40;;;;;;;11.55;90.51;101119.58;108134;1244;72811;-87
2022/09/22 05:50:30;;;;;;;5.60;4.00;;;;;;;11.68;90.12;101119.34;108124;1244;73736;-88
2022/09/22 05:53:05;;;;;;;5.60;4.40;;;;;;;11.72;89.91;101122.95;108016;1245;69200;-87
2022/09/22 05:55:34;;;;;;;6.10;3.80;;;;;;;11.83;89.06;101124.66;107800;1247;70923;-87
2022/09/22 05:58:04;;;;;;;4.80;3.50;;;;;;;11.95;89.04;101119.77;107849;1246;61281;-87
2022/09/22 06:00:32;;;;;;;4.80;3.50;;;;;;;12.08;88.86;101118.11;107745;1247;61667;-88
2022/09/22 06:03:01;;;;;;;4.40;3.40;;;;;;;12.24;87.57;101113.50;108035;1244;72503;-88
2022/09/22 06:05:30;;;;;;;4.10;2.70;;;;;;;12.42;87.43;101119.33;108341;1244;71191;-87
2022/09/22 06:08:05;;;;;;;6.70;2.70;;;;;;;12.49;84.67;101119.54;108285;1244;67674;-89
2022/09/22 06:10:36;;;;;;;4.30;2.70;;;;;;;12.44;82.96;101120.62;107971;1244;72672;-88
2022/09/22 06:13:08;;;;;;;3.90;2.90;;;;;;;12.38;83.07;101120.64;108158;1244;62938;-87
2022/09/22 06:15:38;;;;;;;4.30;2.60;;;;;;;12.27;83.14;101119.23;108262;1244;60099;-90
2022/09/22 06:18:10;;;;;;;3.50;2.70;;;;;;;12.29;82.03;101117.67;108006;1244;71687;-89
2022/09/22 06:20:43;;;;;;;3.70;2.60;;;;;;;12.21;82.55;101126.30;108155;1244;72991;-92
2022/09/22 06:23:14;;;;;;;3.70;2.70;;;;;;;12.15;82.57;101124.30;108326;1244;68391;-81
2022/09/22 06:25:43;;;;;;;6.40;2.90;;;;;;;12.14;83.27;101123.84;107899;1247;73856;-88
2022/09/22 06:28:15;;;;;;;5.30;3.10;;;;;;;12.13;83.82;101127.92;108307;1243;61637;-91
2022/09/22 06:30:44;;;;;;;4.80;3.20;;;;;;;12.17;83.39;101127.96;108215;1247;59456;-89
2022/09/22 06:33:12;;;;;;;4.10;3.00;;;;;;;12.17;82.82;101125.30;108413;1247;73650;-83
2022/09/22 06:35:41;;;;;;;5.10;3.50;;;;;;;12.14;82.94;101132.21;107971;1247;70905;-86
2022/09/22 06:38:14;;;;;;;5.60;3.70;;;;;;;12.19;83.85;101128.73;108207;1246;68834;-87
2022/09/22 06:40:43;;;;;;;4.70;3.20;;;;;;;12.26;83.25;101133.61;108317;1246;73846;-90
2022/09/22 06:43:22;;;;;;;5.10;3.30;;;;;;;12.33;81.91;101129.75;108291;1244;60798;-86
2022/09/22 06:45:51;;;;;;;4.60;3.10;;;;;;;12.25;81.41;101126.52;108295;1244;60231;-84
2022/09/22 06:48:22;;;;;;;4.30;3.10;;;;;;;12.09;81.87;101126.95;108259;1244;72168;-87
2022/09/22 06:50:53;;;;;;;4.50;3.20;;;;;;;12.07;82.03;101126.46;108300;1247;72020;-85
2022/09/22 06:53:23;;;;;;;4.60;3.30;;;;;;;12.14;82.19;101122.23;108628;1244;71211;-84
2022/09/22 06:55:54;;;;;;;;;;;;;;;12.18;82.47;101128.02;108313;1244;74225;-86
2022/09/22 06:58:25;;;;;;;4.40;3.20;;;;;;;12.12;81.99;101128.83;108685;1244;62369;-84
2022/09/22 07:00:54;;;;;;;5.10;3.10;;;;;;;12.20;82.03;101132.45;108757;1244;60380;-84
2022/09/22 07:03:25;;;;;;;5.00;3.70;;;;;;;12.20;81.75;101128.61;108347;1247;71316;-85
2022/09/22 07:05:59;;;;;;;4.70;3.50;;;;;;;12.29;81.95;101128.17;107924;1247;71386;-88
2022/09/22 07:08:32;;;;;;;4.80;3.90;;;;;;;12.38;80.76;101122.38;107829;1246;70453;-82
2022/09/22 07:11:06;;;;;;;5.80;3.50;;;;;;;12.47;80.72;101125.29;108070;1244;72275;-83
2022/09/22 07:13:39;;;;;;;5.30;3.40;;;;;;;12.61;80.43;101122.81;107960;1247;60084;-90
2022/09/22 07:16:16;;;;;;;4.60;3.20;;;;;;;12.62;78.99;101130.45;108131;1246;60459;-84
2022/09/22 07:18:48;;;;;;;4.40;3.40;;;;;;;12.61;79.42;101126.45;107997;1247;74004;-86
2022/09/22 07:21:31;;;;;;;4.70;3.10;;;;;;;12.70;78.55;101127.89;107949;1246;72690;-84
2022/09/22 07:24:00;;;;;;;4.70;2.70;;;;;;;12.74;78.04;101125.16;107880;1247;69180;-85
2022/09/22 07:26:37;;;;;;;5.90;3.60;;;;;;;12.75;77.87;101124.75;107877;1245;72915;-84
2022/09/22 07:29:12;;;;;;;4.00;2.70;;;;;;;12.77;78.49;101124.22;107849;1246;61760;-84
2022/09/22 07:31:41;;;;;;;4.40;3.00;;;;;;;12.89;77.26;101120.20;107770;1244;59312;-81
2022/09/22 07:34:11;;;;;;;3.30;2.70;;;;;;;12.96;76.98;101120.19;107791;1246;73470;-82
2022/09/22 07:36:40;;;;;;;4.90;2.60;;;;;;;13.15;76.72;101121.68;107723;1244;73020;-84
2022/09/22 07:39:10;;;;;;;4.90;2.80;;;;;;;13.30;75.68;101114.98;107624;1247;69660;-83
2022/09/22 07:41:43;;;;;;;4.10;2.40;;;;;;;13.40;75.65;101117.00;107676;1244;74783;-84
2022/09/22 07:47:02;;;;;;;4.10;3.00;;;;;;;13.57;72.87;101112.84;107734;1246;59345;-82
2022/09/22 07:49:31;;;;;;;4.50;2.40;;;;;;;13.69;71.49;101112.62;107953;1242;70981;-86
2022/09/22 07:52:00;;;;;;;2.80;2.00;;;;;;;13.66;71.71;101108.80;107704;1247;71407;-84
2022/09/22 07:54:29;;;;;;;4.30;2.40;;;;;;;13.70;71.39;101115.88;107794;1244;71066;-86
2022/09/22 07:56:58;;;;;;;3.00;2.50;;;;;;;13.67;71.38;101115.23;107814;1244;72329;-85
2022/09/22 07:59:27;;;;;;;3.50;2.70;;;;;;;13.66;70.62;101118.09;107727;1244;59483;-84
2022/09/22 08:01:56;;;;;;;7.20;3.60;;;;;;;13.57;71.56;101112.15;107824;1244;59891;-84
2022/09/22 08:04:29;;;;;;;2.90;2.10;;;;;;;13.52;71.75;101115.86;107838;1244;74336;-84
2022/09/22 08:06:57;;;;;;;4.40;2.50;;;;;;;13.48;71.76;101115.69;107876;1244;71793;-84
2022/09/22 08:09:28;;;;;;;5.30;2.60;;;;;;;13.37;73.05;101117.19;107781;1244;69980;-85
2022/09/22 08:11:57;;;;;;;3.90;2.20;;;;;;;13.47;72.64;101121.02;107860;1244;73567;-85
2022/09/22 08:14:26;;;;;;;3.30;1.70;;;;;;;13.48;71.36;101121.81;108010;1244;60099;-84
2022/09/22 08:16:56;;;;;;;4.20;2.40;;;;;;;13.41;71.43;101121.13;107768;1246;59397;-86
2022/09/22 08:19:25;;;;;;;3.40;2.10;;;;;;;13.37;71.65;101118.46;107917;1246;72714;-85
2022/09/22 08:21:54;;;;;;;4.20;1.80;;;;;;;13.31;72.28;101122.25;108116;1244;69415;-83
2022/09/22 08:24:23;;;;;;;3.90;2.00;;;;;;;13.35;72.26;101116.67;108464;1244;70224;-82
2022/09/22 08:26:55;;;;;;;4.20;2.70;;;;;;;13.41;72.37;101115.55;107789;1247;72013;-83
2022/09/22 08:29:25;;;;;;;3.30;2.20;;;;;;;13.47;72.54;101114.16;107652;1247;62113;-85
2022/09/22 08:31:55;;;;;;;3.60;2.20;;;;;;;13.63;71.92;101109.80;107868;1247;59463;-86
2022/09/22 08:34:24;;;;;;;3.00;2.00;;;;;;;13.83;70.54;101104.35;107867;1247;72644;-87
2022/09/22 08:36:54;;;;;;;2.20;1.70;;;;;;;13.76;69.35;101107.72;107670;1247;72228;-86
2022/09/22 08:39:23;;;;;;;2.70;1.80;;;;;;;13.93;67.65;101101.59;107628;1247;67330;-85
2022/09/22 08:42:04;;;;;;;2.80;1.80;;;;;;;13.94;67.86;101098.70;107609;1246;73907;-85
2022/09/22 08:44:53;;;;;;;62.20;4.20;;;;;;;14.01;68.23;101097.66;107793;1244;58931;-76
2022/09/22 08:53:51;;;;;;;15.20;2.50;;;;;;;14.56;66.89;101102.42;107819;1247;70658;-76
2022/09/22 08:56:32;;;;;;;2.50;1.70;;;;;;;14.56;65.88;101096.30;107521;1247;69726;-77
2022/09/22 08:59:21;;;;;;;6.60;2.60;;;;;;;14.37;67.25;101092.59;107804;1247;74631;-78
2022/09/22 09:02:51;;;;;;;2.40;1.80;;;;;;;14.25;67.77;101091.17;107826;1247;61564;-81
2022/09/22 09:05:44;;;;;;;2.50;1.70;;;;;;;14.34;67.22;101088.50;107263;1247;387445;-76
2022/09/22 09:08:31;;;;;;;3.70;1.60;;;;;;;14.46;67.13;101084.54;107795;1247;70881;-77
2022/09/22 09:11:41;;;;;;;2.40;1.70;;;;;;;15.00;64.09;101085.97;107801;1245;69592;-80
2022/09/22 09:14:50;;;;;;;3.90;1.70;;;;;;;15.04;64.26;101079.42;107402;1247;68724;-77
2022/09/22 09:17:35;;;;;;;3.70;1.50;;;;;;;14.66;64.39;101090.42;107850;1244;71990;-80
2022/09/22 09:20:30;;;;;;;1.70;1.30;;;;;;;14.47;64.13;101100.02;107746;1244;60740;-78
2022/09/22 09:23:01;;;;;;;2.90;1.60;;;;;;;13.96;66.16;101095.46;107931;1244;60650;-77
2022/09/22 09:25:39;;;;;;;2.70;1.40;;;;;;;13.70;67.37;101102.60;107762;1244;72836;-78
2022/09/22 09:28:32;;;;;;;2.20;1.40;;;;;;;13.57;68.58;101100.67;108143;1244;70301;-80
2022/09/22 09:31:20;;;;;;;2.50;1.50;;;;;;;13.37;70.81;101103.77;107868;1247;68273;-84
2022/09/22 09:34:06;;;;;;;4.30;1.70;;;;;;;13.30;71.71;101101.70;108078;1247;72138;-84
2022/09/22 09:36:41;;;;;;;2.70;1.90;;;;;;;13.27;72.32;101097.58;107769;1247;59065;-82
2022/09/22 09:39:30;;;;;;;2.30;1.70;;;;;;;13.38;71.65;101094.03;108077;1246;61314;-82
2022/09/22 09:42:01;;;;;;;4.00;1.80;;;;;;;13.46;71.96;101090.45;108048;1245;70887;-81
2022/09/22 09:44:37;;;;;;;2.60;1.90;;;;;;;13.52;71.77;101091.57;107815;1247;70374;-80
2022/09/22 09:47:40;;;;;;;2.60;1.80;;;;;;;13.65;70.05;101083.71;107907;1245;68121;-86
2022/09/22 09:50:14;;;;;;;2.80;1.60;;;;;;;13.62;69.97;101082.89;107891;1244;70952;-85
2022/09/22 09:52:44;;;;;;;4.40;2.10;;;;;;;13.68;69.36;101076.46;107956;1247;60446;-82
2022/09/22 09:55:25;;;;;;;7.10;2.40;;;;;;;13.92;69.81;101077.01;107838;1247;61145;-84
2022/09/22 09:58:04;;;;;;;5.70;2.00;;;;;;;14.31;68.91;101074.14;107956;1244;74091;-83
2022/09/22 10:00:58;;;;;;;2.60;1.80;;;;;;;14.70;67.97;101074.96;108187;1244;72559;-84
2022/09/22 10:03:40;;;;;;;2.60;1.70;;;;;;;15.17;66.47;101075.19;108010;1244;70104;-82
2022/09/22 10:06:10;;;;;;;1.10;0.90;;;;;;;15.20;61.21;101087.05;107949;1244;74252;-78
2022/09/22 10:08:46;;;;;;;0.80;0.80;;;;;;;14.80;56.87;101088.52;108023;1244;60124;-84
2022/09/22 10:11:15;;;;;;;3.50;1.20;;;;;;;14.26;57.39;101088.61;107973;1247;59537;-84
2022/09/22 10:13:55;;;;;;;3.90;1.50;;;;;;;13.51;62.47;101105.13;107825;1246;70894;-79
2022/09/22 10:16:27;;;;;;;4.00;2.00;;;;;;;12.32;71.89;101108.21;107956;1247;69410;-81
2022/09/22 10:19:04;;;;;;;4.40;2.30;;;;;;;11.27;82.66;101108.27;107833;1247;67939;-83
2022/09/22 10:21:36;;;;;;;3.50;2.20;;;;;;;10.89;87.10;101108.77;108011;1246;73633;-80
2022/09/22 10:24:31;;;;;;;3.80;2.10;;;;;;;10.73;88.73;101105.70;108109;1244;63488;-84
2022/09/22 10:27:02;;;;;;;2.70;1.60;;;;;;;10.60;89.36;101104.09;108088;1247;60945;-87
2022/09/22 10:29:34;;;;;;;2.40;1.70;;;;;;;10.55;89.84;101103.40;108003;1247;73430;-87
2022/09/22 10:32:15;;;;;;;3.40;1.90;;;;;;;10.55;91.34;101104.27;107811;1247;70000;-82
2022/09/22 10:34:50;;;;;;;2.50;1.70;;;;;;;10.67;88.34;101108.20;108076;1247;70597;-87
2022/09/22 10:37:26;;;;;;;3.00;1.70;;;;;;;10.75;89.38;101106.95;108038;1247;70909;-82
2022/09/22 10:40:00;;;;;;;2.40;1.60;;;;;;;10.83;94.39;101108.67;107931;1247;60620;-84
2022/09/22 10:42:39;;;;;;;2.80;2.00;;;;;;;10.89;93.42;101107.05;108411;1246;58746;-88
2022/09/22 10:45:18;;;;;;;3.40;2.10;;;;;;;11.13;90.52;101105.60;107979;1247;74660;-83
2022/09/22 10:48:07;;;;;;;3.40;2.50;;;;;;;11.39;91.04;101101.36;107707;1247;71722;-88
2022/09/22 10:50:40;;;;;;;3.00;1.90;;;;;;;11.60;91.74;101098.18;110080;1245;67893;-84
2022/09/22 10:53:20;;;;;;;3.20;2.10;;;;;;;11.83;88.68;101090.91;109377;1247;73224;-78
2022/09/22 10:56:10;;;;;;;7.40;2.10;;;;;;;11.91;87.46;101085.67;108126;1247;59308;-84
2022/09/22 10:59:10;;;;;;;2.80;1.60;;;;;;;12.18;86.69;101085.80;108067;1246;59704;-81
2022/09/22 11:01:48;;;;;;;4.00;1.90;;;;;;;12.66;85.11;101076.86;107838;1246;71639;-78
2022/09/22 11:04:52;;;;;;;2.30;1.50;;;;;;;13.00;82.44;101071.77;107827;1246;72445;-82
2022/09/22 11:13:35;;;;;;;2.70;1.70;;;;;;;14.36;77.86;101057.81;107849;1247;61879;-77
2022/09/22 11:16:37;;;;;;;2.60;2.00;;;;;;;14.91;74.84;101051.66;107695;1247;62242;-83
2022/09/22 11:20:04;;;;;;;3.50;2.00;;;;;;;15.06;70.85;101045.41;107889;1247;71363;-82
2022/09/22 11:23:21;;;;;;;3.10;2.00;;;;;;;15.29;70.02;101047.80;107772;1247;71389;-83
2022/09/22 11:26:14;;;;;;;2.30;1.70;;;;;;;15.25;69.21;101041.67;107604;1247;71312;-83
2022/09/22 11:29:40;;;;;;;2.40;1.80;;;;;;;15.64;67.38;101038.87;107654;1247;72935;-86
2022/09/22 11:32:47;;;;;;;2.70;2.00;;;;;;;15.42;65.96;101033.04;107953;1247;60933;-84
2022/09/22 11:35:48;;;;;;;3.30;2.00;;;;;;;15.29;66.89;101031.89;107795;1247;61074;-84
2022/09/22 11:38:38;;;;;;;3.40;2.10;;;;;;;14.93;68.19;101040.25;108020;1247;71834;-80
2022/09/22 11:41:45;;;;;;;3.50;2.20;;;;;;;14.39;69.77;101041.25;107837;1247;70348;-86
2022/09/22 11:44:47;;;;;;;2.40;2.10;;;;;;;14.05;71.64;101040.44;107870;1245;71013;-85
2022/09/22 11:47:34;;;;;;;3.90;1.90;;;;;;;14.04;72.58;101042.45;107568;1247;74807;-85
2022/09/22 11:50:38;;;;;;;3.80;1.90;;;;;;;14.26;72.08;101037.45;107617;1247;62737;-85
2022/09/22 11:53:40;;;;;;;3.10;2.00;;;;;;;14.45;70.84;101032.73;107722;1247;60508;-85
2022/09/22 11:56:25;;;;;;;4.10;2.20;;;;;;;14.44;75.69;101037.17;107790;1247;74057;-85
2022/09/22 11:59:01;;;;;;;3.80;2.20;;;;;;;14.64;74.67;101047.13;107814;1248;72412;-84
2022/09/22 12:01:37;;;;;;;3.20;1.50;;;;;;;14.45;73.32;101044.26;107730;1247;68751;-85
2022/09/22 12:04:33;;;;;;;2.60;2.00;;;;;;;14.29;70.56;101052.80;107731;1247;73106;-84
2022/09/22 12:07:09;;;;;;;3.10;1.70;;;;;;;14.30;71.52;101054.13;107792;1247;62064;-89
2022/09/22 12:09:52;;;;;;;8.40;2.40;;;;;;;13.86;72.18;101054.02;107739;1248;61856;-85
2022/09/22 12:12:24;;;;;;;5.50;2.40;;;;;;;13.41;76.10;101042.23;107616;1247;70857;-85
2022/09/22 12:15:20;;;;;;;5.40;2.40;;;;;;;13.07;79.75;101041.02;107788;1247;72201;-83